Impacts METAR Board
IDs:

KIAD - Washington/Dulles In, VA, US

Updated at: 0900 UTC 18 Jan 2019
Potential Impact None Slight Moderate High
Time 17/21Z 17/22Z 17/23Z 18/00Z 18/01Z 18/02Z 18/03Z 18/04Z 18/05Z 18/06Z 18/07Z 18/08Z 18/09Z
Temp36 36 33 32 32 32 32 32 32 32 33 33 33
Dewpt25 25 29 32 32 31 32 32 32 32 33 32 33
Altim30.24 30.23 30.23 30.23 30.21 30.19 30.18 30.17 30.15 30.12 30.10 30.09 30.08
VIS10 10 1.75 1.25 1.25 2 2.5 2.5 3 4 4 3 3
CIG40 39 22 5 5 7 7 6 5 5 6 6 5
CoverOVCOVCOVCOVCOVCOVCOVCOVCOVCOVCOVCOVCOVC
FltCatVFRVFRIFRIFRIFRIFRIFRIFRIFRIFRIFRIFRIFR
WX-----SN BR-SN BR-SN BR-SN BR-SN BR-SN BR-SN BR-SN BRBR-SN BRBR
WDir1401701701001301301501301201101201100
WSpd6 4 4 4 3 4 4 3 3 4 3 4 0
WGst-- -- -- -- -- -- -- -- -- -- -- -- --
Raw hourly METARs
KIAD 172052Z 14006KT 10SM OVC040 02/M04 A3024 RMK AO2 SLP242 T00221039 56019
KIAD 172152Z 17004KT 10SM OVC039 02/M04 A3023 RMK AO2 SLP239 T00221039
KIAD 172252Z 17004KT 1 3/4SM -SN BR BKN022 OVC040 01/M02 A3023 RMK AO2 SNB30 SLP240 P0001 T00061017
KIAD 172351Z 10004KT 1 1/4SM R01R/6000VP6000FT -SN BR BKN005 OVC011 00/00 A3023 RMK AO2 SLP238 4/003 P0003 60004 T00000000 10022 20000 56004
KIAD 180052Z 13003KT 1 1/4SM -SN BR BKN005 OVC016 00/00 A3021 RMK AO2 SLP234 P0004 T00000000
KIAD 180152Z 13004KT 2SM -SN BR OVC007 00/M01 A3019 RMK AO2 SLP226 P0000 T00001006
KIAD 180252Z 15004KT 2 1/2SM -SN BR OVC007 00/00 A3018 RMK AO2 SLP224 P0000 60004 T00000000 56014
KIAD 180352Z 13003KT 2 1/2SM -SN BR OVC006 00/00 A3017 RMK AO2 SLP219 P0001 T00000000
KIAD 180452Z COR 12003KT 3SM -SN BR BKN005 BKN016 OVC026 00/00 A3015 RMK AO2 SLP212 P0001 T00000000 400221022
KIAD 180552Z 11004KT 4SM -SN BR BKN005 OVC016 00/00 A3012 RMK AO2 SLP203 4/004 P0001 60007 T00000000 10006 20000 58020
KIAD 180652Z 12003KT 4SM BR BKN006 OVC017 01/01 A3010 RMK AO2 SNE42 SLP195 P0001 T00060006
KIAD 180752Z 11004KT 3SM -SN BR BKN006 OVC016 01/00 A3009 RMK AO2 SNB32 SLP192 P0001 T00060000
KIAD 180852Z 00000KT 3SM BR OVC005 01/01 A3008 RMK AO2 SNE49 SLP187 P0001 60003 T00060006 56016



Page loaded:  09:35 UTC  |   01:35 AM Pacific  |   02:35 AM Mountain  |   03:35 AM Central  |   04:35 AM Eastern

 

ADVISORIES

FORECASTS

FORECASTS

OBSERVATIONS

USER TOOLS

ABOUT US